sensor_id;sensor_type;location;lat;lon;timestamp;P1;durP1;ratioP1;P2;durP2;ratioP2
2622;SDS011;1321;48.690;9.022;2023-12-04T00:00:08;10.80;;;9.77;;
2622;SDS011;1321;48.690;9.022;2023-12-04T00:02:37;13.65;;;10.68;;
2622;SDS011;1321;48.690;9.022;2023-12-04T00:05:06;12.38;;;10.65;;
2622;SDS011;1321;48.690;9.022;2023-12-04T00:07:38;11.50;;;10.27;;
2622;SDS011;1321;48.690;9.022;2023-12-04T00:10:06;12.48;;;9.98;;
2622;SDS011;1321;48.690;9.022;2023-12-04T00:12:36;10.02;;;8.57;;
2622;SDS011;1321;48.690;9.022;2023-12-04T00:15:06;9.75;;;8.75;;
2622;SDS011;1321;48.690;9.022;2023-12-04T00:17:35;11.15;;;9.40;;
2622;SDS011;1321;48.690;9.022;2023-12-04T00:20:07;11.45;;;9.80;;
2622;SDS011;1321;48.690;9.022;2023-12-04T00:22:37;10.50;;;9.45;;
2622;SDS011;1321;48.690;9.022;2023-12-04T00:25:06;10.48;;;9.48;;
2622;SDS011;1321;48.690;9.022;2023-12-04T00:27:34;10.32;;;9.25;;
2622;SDS011;1321;48.690;9.022;2023-12-04T00:30:03;9.52;;;8.52;;
2622;SDS011;1321;48.690;9.022;2023-12-04T00:32:34;9.93;;;8.50;;
2622;SDS011;1321;48.690;9.022;2023-12-04T00:35:02;12.07;;;8.80;;
2622;SDS011;1321;48.690;9.022;2023-12-04T00:37:31;14.13;;;10.52;;
2622;SDS011;1321;48.690;9.022;2023-12-04T00:40:05;11.45;;;10.25;;
2622;SDS011;1321;48.690;9.022;2023-12-04T00:42:34;9.27;;;8.48;;
2622;SDS011;1321;48.690;9.022;2023-12-04T00:45:02;8.45;;;7.75;;
2622;SDS011;1321;48.690;9.022;2023-12-04T00:47:32;10.73;;;8.32;;
2622;SDS011;1321;48.690;9.022;2023-12-04T00:50:01;11.45;;;9.77;;
2622;SDS011;1321;48.690;9.022;2023-12-04T00:52:29;9.82;;;8.75;;
2622;SDS011;1321;48.690;9.022;2023-12-04T00:54:57;9.07;;;8.02;;
2622;SDS011;1321;48.690;9.022;2023-12-04T00:57:26;12.70;;;10.43;;
2622;SDS011;1321;48.690;9.022;2023-12-04T00:59:54;12.48;;;11.13;;
2622;SDS011;1321;48.690;9.022;2023-12-04T01:02:22;11.23;;;10.07;;
2622;SDS011;1321;48.690;9.022;2023-12-04T01:04:52;12.07;;;10.77;;
2622;SDS011;1321;48.690;9.022;2023-12-04T01:07:20;12.25;;;9.48;;
2622;SDS011;1321;48.690;9.022;2023-12-04T01:09:48;9.82;;;8.88;;
2622;SDS011;1321;48.690;9.022;2023-12-04T01:12:16;10.15;;;9.23;;
2622;SDS011;1321;48.690;9.022;2023-12-04T01:14:44;10.57;;;9.20;;
2622;SDS011;1321;48.690;9.022;2023-12-04T01:17:13;10.80;;;9.38;;
2622;SDS011;1321;48.690;9.022;2023-12-04T01:19:41;12.20;;;10.02;;
2622;SDS011;1321;48.690;9.022;2023-12-04T01:22:10;11.00;;;9.90;;
2622;SDS011;1321;48.690;9.022;2023-12-04T01:24:38;12.10;;;9.00;;
2622;SDS011;1321;48.690;9.022;2023-12-04T01:27:07;10.43;;;9.43;;
2622;SDS011;1321;48.690;9.022;2023-12-04T01:29:35;9.60;;;8.70;;
2622;SDS011;1321;48.690;9.022;2023-12-04T01:32:03;12.27;;;9.85;;
2622;SDS011;1321;48.690;9.022;2023-12-04T01:34:32;10.60;;;9.60;;
2622;SDS011;1321;48.690;9.022;2023-12-04T01:37:00;10.23;;;9.23;;
2622;SDS011;1321;48.690;9.022;2023-12-04T01:39:30;10.23;;;8.30;;
2622;SDS011;1321;48.690;9.022;2023-12-04T01:41:58;10.13;;;9.07;;
2622;SDS011;1321;48.690;9.022;2023-12-04T01:44:26;11.95;;;9.63;;
2622;SDS011;1321;48.690;9.022;2023-12-04T01:46:55;10.10;;;9.05;;
2622;SDS011;1321;48.690;9.022;2023-12-04T01:49:23;9.70;;;8.63;;
2622;SDS011;1321;48.690;9.022;2023-12-04T01:51:52;10.60;;;8.70;;
2622;SDS011;1321;48.690;9.022;2023-12-04T01:54:21;10.00;;;8.50;;
2622;SDS011;1321;48.690;9.022;2023-12-04T01:56:51;10.35;;;9.35;;
2622;SDS011;1321;48.690;9.022;2023-12-04T01:59:19;8.73;;;7.82;;
2622;SDS011;1321;48.690;9.022;2023-12-04T02:01:48;9.30;;;8.40;;
2622;SDS011;1321;48.690;9.022;2023-12-04T02:04:16;9.30;;;8.43;;
2622;SDS011;1321;48.690;9.022;2023-12-04T02:06:45;11.30;;;8.55;;
2622;SDS011;1321;48.690;9.022;2023-12-04T02:09:13;10.85;;;8.88;;
2622;SDS011;1321;48.690;9.022;2023-12-04T02:11:42;9.30;;;8.30;;
2622;SDS011;1321;48.690;9.022;2023-12-04T02:14:12;8.95;;;7.93;;
2622;SDS011;1321;48.690;9.022;2023-12-04T02:16:41;9.63;;;8.63;;
2622;SDS011;1321;48.690;9.022;2023-12-04T02:19:10;9.55;;;8.60;;
2622;SDS011;1321;48.690;9.022;2023-12-04T02:21:42;10.50;;;8.18;;
2622;SDS011;1321;48.690;9.022;2023-12-04T02:24:12;8.73;;;7.82;;
2622;SDS011;1321;48.690;9.022;2023-12-04T02:26:42;10.77;;;7.70;;
2622;SDS011;1321;48.690;9.022;2023-12-04T02:29:15;9.80;;;7.95;;
2622;SDS011;1321;48.690;9.022;2023-12-04T02:31:50;9.65;;;8.65;;
2622;SDS011;1321;48.690;9.022;2023-12-04T02:34:21;8.48;;;7.53;;
2622;SDS011;1321;48.690;9.022;2023-12-04T02:36:50;8.13;;;7.32;;
2622;SDS011;1321;48.690;9.022;2023-12-04T02:39:22;11.07;;;8.32;;
2622;SDS011;1321;48.690;9.022;2023-12-04T02:41:50;8.80;;;8.00;;
2622;SDS011;1321;48.690;9.022;2023-12-04T02:44:18;9.35;;;8.45;;
2622;SDS011;1321;48.690;9.022;2023-12-04T02:46:47;10.05;;;8.35;;
2622;SDS011;1321;48.690;9.022;2023-12-04T02:49:15;8.05;;;7.35;;
2622;SDS011;1321;48.690;9.022;2023-12-04T02:51:43;11.43;;;8.27;;
2622;SDS011;1321;48.690;9.022;2023-12-04T02:54:11;9.10;;;8.30;;
2622;SDS011;1321;48.690;9.022;2023-12-04T02:56:41;9.95;;;8.30;;
2622;SDS011;1321;48.690;9.022;2023-12-04T02:59:09;8.63;;;7.72;;
2622;SDS011;1321;48.690;9.022;2023-12-04T03:01:37;10.23;;;8.45;;
2622;SDS011;1321;48.690;9.022;2023-12-04T03:04:05;10.20;;;9.00;;
2622;SDS011;1321;48.690;9.022;2023-12-04T03:06:34;8.88;;;8.07;;
2622;SDS011;1321;48.690;9.022;2023-12-04T03:09:03;8.70;;;7.90;;
2622;SDS011;1321;48.690;9.022;2023-12-04T03:11:31;9.88;;;7.97;;
2622;SDS011;1321;48.690;9.022;2023-12-04T03:14:01;8.25;;;7.45;;
2622;SDS011;1321;48.690;9.022;2023-12-04T03:16:29;9.50;;;8.50;;
2622;SDS011;1321;48.690;9.022;2023-12-04T03:18:57;10.35;;;8.30;;
2622;SDS011;1321;48.690;9.022;2023-12-04T03:21:25;8.70;;;7.90;;
2622;SDS011;1321;48.690;9.022;2023-12-04T03:23:55;8.38;;;7.57;;
2622;SDS011;1321;48.690;9.022;2023-12-04T03:26:23;10.50;;;8.68;;
2622;SDS011;1321;48.690;9.022;2023-12-04T03:28:51;12.65;;;7.95;;
2622;SDS011;1321;48.690;9.022;2023-12-04T03:31:21;11.80;;;8.43;;
2622;SDS011;1321;48.690;9.022;2023-12-04T03:33:49;10.80;;;9.05;;
2622;SDS011;1321;48.690;9.022;2023-12-04T03:36:17;10.77;;;8.10;;
2622;SDS011;1321;48.690;9.022;2023-12-04T03:38:45;9.55;;;8.65;;
2622;SDS011;1321;48.690;9.022;2023-12-04T03:41:14;10.90;;;9.23;;
2622;SDS011;1321;48.690;9.022;2023-12-04T03:43:42;9.90;;;8.82;;
2622;SDS011;1321;48.690;9.022;2023-12-04T03:46:11;9.80;;;8.25;;
2622;SDS011;1321;48.690;9.022;2023-12-04T03:48:41;8.32;;;7.60;;
2622;SDS011;1321;48.690;9.022;2023-12-04T03:51:09;10.20;;;8.40;;
2622;SDS011;1321;48.690;9.022;2023-12-04T03:53:37;11.60;;;8.57;;
2622;SDS011;1321;48.690;9.022;2023-12-04T03:56:05;8.18;;;7.30;;
2622;SDS011;1321;48.690;9.022;2023-12-04T03:58:34;8.18;;;7.28;;
2622;SDS011;1321;48.690;9.022;2023-12-04T04:01:03;9.63;;;8.55;;
2622;SDS011;1321;48.690;9.022;2023-12-04T04:03:32;10.15;;;8.40;;
2622;SDS011;1321;48.690;9.022;2023-12-04T04:06:02;9.82;;;8.85;;
2622;SDS011;1321;48.690;9.022;2023-12-04T04:08:30;8.75;;;7.53;;
2622;SDS011;1321;48.690;9.022;2023-12-04T04:10:59;9.90;;;8.20;;
2622;SDS011;1321;48.690;9.022;2023-12-04T04:13:27;10.30;;;9.25;;
2622;SDS011;1321;48.690;9.022;2023-12-04T04:15:55;11.98;;;9.43;;
2622;SDS011;1321;48.690;9.022;2023-12-04T04:18:24;9.07;;;8.30;;
2622;SDS011;1321;48.690;9.022;2023-12-04T04:20:52;8.95;;;8.15;;
2622;SDS011;1321;48.690;9.022;2023-12-04T04:23:21;9.13;;;8.13;;
2622;SDS011;1321;48.690;9.022;2023-12-04T04:25:50;9.65;;;8.75;;
2622;SDS011;1321;48.690;9.022;2023-12-04T04:28:18;8.55;;;7.75;;
2622;SDS011;1321;48.690;9.022;2023-12-04T04:30:46;9.18;;;8.35;;
2622;SDS011;1321;48.690;9.022;2023-12-04T04:33:15;10.93;;;9.10;;
2622;SDS011;1321;48.690;9.022;2023-12-04T04:35:44;8.40;;;7.50;;
2622;SDS011;1321;48.690;9.022;2023-12-04T04:38:12;10.57;;;8.77;;
2622;SDS011;1321;48.690;9.022;2023-12-04T04:40:41;9.35;;;8.45;;
2622;SDS011;1321;48.690;9.022;2023-12-04T04:43:10;8.40;;;7.60;;
2622;SDS011;1321;48.690;9.022;2023-12-04T04:45:39;9.48;;;8.55;;
2622;SDS011;1321;48.690;9.022;2023-12-04T04:48:07;10.05;;;8.35;;
2622;SDS011;1321;48.690;9.022;2023-12-04T04:50:35;10.77;;;8.40;;
2622;SDS011;1321;48.690;9.022;2023-12-04T04:53:04;8.55;;;7.75;;
2622;SDS011;1321;48.690;9.022;2023-12-04T04:55:32;9.65;;;8.32;;
2622;SDS011;1321;48.690;9.022;2023-12-04T04:58:16;9.25;;;7.82;;
2622;SDS011;1321;48.690;9.022;2023-12-04T05:00:44;9.85;;;8.95;;
2622;SDS011;1321;48.690;9.022;2023-12-04T05:03:13;9.38;;;8.52;;
2622;SDS011;1321;48.690;9.022;2023-12-04T05:05:41;7.65;;;6.90;;
2622;SDS011;1321;48.690;9.022;2023-12-04T05:08:10;7.75;;;7.05;;
2622;SDS011;1321;48.690;9.022;2023-12-04T05:10:38;8.85;;;7.95;;
2622;SDS011;1321;48.690;9.022;2023-12-04T05:13:06;9.10;;;8.30;;
2622;SDS011;1321;48.690;9.022;2023-12-04T05:15:37;9.02;;;8.13;;
2622;SDS011;1321;48.690;9.022;2023-12-04T05:18:05;8.85;;;8.05;;
2622;SDS011;1321;48.690;9.022;2023-12-04T05:20:33;8.10;;;7.40;;
2622;SDS011;1321;48.690;9.022;2023-12-04T05:23:01;8.15;;;7.07;;
2622;SDS011;1321;48.690;9.022;2023-12-04T05:25:29;9.48;;;7.93;;
2622;SDS011;1321;48.690;9.022;2023-12-04T05:28:06;8.93;;;7.80;;
2622;SDS011;1321;48.690;9.022;2023-12-04T05:30:37;9.10;;;8.25;;
2622;SDS011;1321;48.690;9.022;2023-12-04T05:33:05;10.15;;;9.20;;
2622;SDS011;1321;48.690;9.022;2023-12-04T05:35:33;8.77;;;7.95;;
2622;SDS011;1321;48.690;9.022;2023-12-04T05:38:03;8.18;;;7.50;;
2622;SDS011;1321;48.690;9.022;2023-12-04T05:40:31;9.43;;;8.38;;
2622;SDS011;1321;48.690;9.022;2023-12-04T05:43:00;8.00;;;7.30;;
2622;SDS011;1321;48.690;9.022;2023-12-04T05:45:28;9.68;;;8.30;;
2622;SDS011;1321;48.690;9.022;2023-12-04T05:47:56;7.80;;;7.10;;
2622;SDS011;1321;48.690;9.022;2023-12-04T05:50:25;8.05;;;7.35;;
2622;SDS011;1321;48.690;9.022;2023-12-04T05:52:53;8.05;;;7.40;;
2622;SDS011;1321;48.690;9.022;2023-12-04T05:55:21;9.68;;;8.68;;
2622;SDS011;1321;48.690;9.022;2023-12-04T05:57:49;10.18;;;9.02;;
2622;SDS011;1321;48.690;9.022;2023-12-04T06:00:18;9.27;;;7.97;;
2622;SDS011;1321;48.690;9.022;2023-12-04T06:02:51;10.18;;;8.45;;
2622;SDS011;1321;48.690;9.022;2023-12-04T06:05:22;10.27;;;9.23;;
2622;SDS011;1321;48.690;9.022;2023-12-04T06:07:50;9.82;;;8.23;;
2622;SDS011;1321;48.690;9.022;2023-12-04T06:10:18;8.02;;;7.32;;
2622;SDS011;1321;48.690;9.022;2023-12-04T06:12:47;11.52;;;8.55;;
2622;SDS011;1321;48.690;9.022;2023-12-04T06:15:15;9.18;;;7.55;;
2622;SDS011;1321;48.690;9.022;2023-12-04T06:17:43;8.95;;;8.15;;
2622;SDS011;1321;48.690;9.022;2023-12-04T06:20:11;9.10;;;8.25;;
2622;SDS011;1321;48.690;9.022;2023-12-04T06:22:41;9.23;;;8.30;;
2622;SDS011;1321;48.690;9.022;2023-12-04T06:25:10;10.27;;;8.60;;
2622;SDS011;1321;48.690;9.022;2023-12-04T06:27:40;8.73;;;7.95;;
2622;SDS011;1321;48.690;9.022;2023-12-04T06:30:09;10.07;;;8.77;;
2622;SDS011;1321;48.690;9.022;2023-12-04T06:32:38;8.93;;;8.05;;
2622;SDS011;1321;48.690;9.022;2023-12-04T06:35:07;8.88;;;8.13;;
2622;SDS011;1321;48.690;9.022;2023-12-04T06:37:36;8.32;;;7.50;;
2622;SDS011;1321;48.690;9.022;2023-12-04T06:40:08;10.52;;;8.52;;
2622;SDS011;1321;48.690;9.022;2023-12-04T06:42:38;7.75;;;7.05;;
2622;SDS011;1321;48.690;9.022;2023-12-04T06:45:07;8.02;;;7.22;;
2622;SDS011;1321;48.690;9.022;2023-12-04T06:47:36;7.18;;;6.57;;
2622;SDS011;1321;48.690;9.022;2023-12-04T06:50:07;7.90;;;7.20;;
2622;SDS011;1321;48.690;9.022;2023-12-04T06:52:36;8.80;;;7.28;;
2622;SDS011;1321;48.690;9.022;2023-12-04T06:55:04;8.02;;;7.30;;
2622;SDS011;1321;48.690;9.022;2023-12-04T06:57:35;8.52;;;7.72;;
2622;SDS011;1321;48.690;9.022;2023-12-04T07:00:03;7.55;;;6.75;;
2622;SDS011;1321;48.690;9.022;2023-12-04T07:02:48;7.82;;;7.22;;
2622;SDS011;1321;48.690;9.022;2023-12-04T07:05:17;9.77;;;8.88;;
2622;SDS011;1321;48.690;9.022;2023-12-04T07:07:45;7.93;;;7.20;;
2622;SDS011;1321;48.690;9.022;2023-12-04T07:10:13;10.20;;;8.57;;
2622;SDS011;1321;48.690;9.022;2023-12-04T07:12:44;9.48;;;8.63;;
2622;SDS011;1321;48.690;9.022;2023-12-04T07:15:12;9.25;;;8.27;;
2622;SDS011;1321;48.690;9.022;2023-12-04T07:17:40;9.25;;;8.07;;
2622;SDS011;1321;48.690;9.022;2023-12-04T07:20:09;11.05;;;9.70;;
2622;SDS011;1321;48.690;9.022;2023-12-04T07:22:39;11.18;;;9.30;;
2622;SDS011;1321;48.690;9.022;2023-12-04T07:25:07;8.85;;;7.60;;
2622;SDS011;1321;48.690;9.022;2023-12-04T07:27:36;9.88;;;9.02;;
2622;SDS011;1321;48.690;9.022;2023-12-04T07:30:07;11.05;;;8.30;;
2622;SDS011;1321;48.690;9.022;2023-12-04T07:32:35;8.20;;;7.40;;
2622;SDS011;1321;48.690;9.022;2023-12-04T07:35:04;7.97;;;7.18;;
2622;SDS011;1321;48.690;9.022;2023-12-04T07:37:33;8.43;;;7.38;;
2622;SDS011;1321;48.690;9.022;2023-12-04T07:40:02;8.45;;;7.63;;
2622;SDS011;1321;48.690;9.022;2023-12-04T07:42:32;8.00;;;7.28;;
2622;SDS011;1321;48.690;9.022;2023-12-04T07:45:00;9.85;;;8.60;;
2622;SDS011;1321;48.690;9.022;2023-12-04T07:47:30;10.85;;;9.20;;
2622;SDS011;1321;48.690;9.022;2023-12-04T07:49:59;9.60;;;8.60;;
2622;SDS011;1321;48.690;9.022;2023-12-04T07:52:27;9.18;;;8.27;;
2622;SDS011;1321;48.690;9.022;2023-12-04T07:54:56;10.55;;;8.00;;
2622;SDS011;1321;48.690;9.022;2023-12-04T07:57:24;9.73;;;8.82;;
2622;SDS011;1321;48.690;9.022;2023-12-04T07:59:52;9.23;;;8.02;;
2622;SDS011;1321;48.690;9.022;2023-12-04T08:02:20;9.23;;;8.23;;
2622;SDS011;1321;48.690;9.022;2023-12-04T08:04:50;9.20;;;7.88;;
2622;SDS011;1321;48.690;9.022;2023-12-04T08:07:18;8.00;;;7.20;;
2622;SDS011;1321;48.690;9.022;2023-12-04T08:09:47;8.75;;;7.95;;
2622;SDS011;1321;48.690;9.022;2023-12-04T08:12:15;8.63;;;7.70;;
2622;SDS011;1321;48.690;9.022;2023-12-04T08:14:43;9.75;;;8.75;;
2622;SDS011;1321;48.690;9.022;2023-12-04T08:17:13;9.40;;;8.70;;
2622;SDS011;1321;48.690;9.022;2023-12-04T08:19:41;13.45;;;8.45;;
2622;SDS011;1321;48.690;9.022;2023-12-04T08:22:11;8.85;;;8.10;;
2622;SDS011;1321;48.690;9.022;2023-12-04T08:24:39;8.75;;;7.13;;
2622;SDS011;1321;48.690;9.022;2023-12-04T08:27:08;8.70;;;8.05;;
2622;SDS011;1321;48.690;9.022;2023-12-04T08:29:39;8.02;;;7.10;;
2622;SDS011;1321;48.690;9.022;2023-12-04T08:32:07;9.07;;;8.18;;
2622;SDS011;1321;48.690;9.022;2023-12-04T08:34:35;8.50;;;7.70;;
2622;SDS011;1321;48.690;9.022;2023-12-04T08:37:03;8.35;;;7.55;;
2622;SDS011;1321;48.690;9.022;2023-12-04T08:39:33;9.30;;;7.43;;
2622;SDS011;1321;48.690;9.022;2023-12-04T08:42:01;8.27;;;7.57;;
2622;SDS011;1321;48.690;9.022;2023-12-04T08:44:34;8.82;;;7.72;;
2622;SDS011;1321;48.690;9.022;2023-12-04T08:47:04;8.65;;;7.75;;
2622;SDS011;1321;48.690;9.022;2023-12-04T08:49:32;9.05;;;8.15;;
2622;SDS011;1321;48.690;9.022;2023-12-04T08:52:11;10.43;;;7.75;;
2622;SDS011;1321;48.690;9.022;2023-12-04T08:54:41;9.32;;;8.15;;
2622;SDS011;1321;48.690;9.022;2023-12-04T08:57:09;9.73;;;8.02;;
2622;SDS011;1321;48.690;9.022;2023-12-04T08:59:38;8.73;;;7.85;;
2622;SDS011;1321;48.690;9.022;2023-12-04T09:02:06;8.80;;;7.90;;
2622;SDS011;1321;48.690;9.022;2023-12-04T09:04:38;8.95;;;7.80;;
2622;SDS011;1321;48.690;9.022;2023-12-04T09:07:07;8.30;;;7.43;;
2622;SDS011;1321;48.690;9.022;2023-12-04T09:09:38;9.75;;;8.63;;
2622;SDS011;1321;48.690;9.022;2023-12-04T09:12:09;9.15;;;8.15;;
2622;SDS011;1321;48.690;9.022;2023-12-04T09:14:37;9.82;;;8.88;;
2622;SDS011;1321;48.690;9.022;2023-12-04T09:17:05;10.35;;;9.30;;
2622;SDS011;1321;48.690;9.022;2023-12-04T09:19:34;9.13;;;8.32;;
2622;SDS011;1321;48.690;9.022;2023-12-04T09:22:03;9.50;;;8.60;;
2622;SDS011;1321;48.690;9.022;2023-12-04T09:24:44;8.68;;;7.90;;
2622;SDS011;1321;48.690;9.022;2023-12-04T09:27:13;9.20;;;8.40;;
2622;SDS011;1321;48.690;9.022;2023-12-04T09:29:41;9.90;;;8.95;;
2622;SDS011;1321;48.690;9.022;2023-12-04T09:32:10;9.40;;;8.50;;
2622;SDS011;1321;48.690;9.022;2023-12-04T09:34:38;10.73;;;9.63;;
2622;SDS011;1321;48.690;9.022;2023-12-04T09:37:06;8.90;;;7.95;;
2622;SDS011;1321;48.690;9.022;2023-12-04T09:39:38;9.88;;;8.77;;
2622;SDS011;1321;48.690;9.022;2023-12-04T09:42:07;10.70;;;9.70;;
2622;SDS011;1321;48.690;9.022;2023-12-04T09:44:37;9.70;;;8.75;;
2622;SDS011;1321;48.690;9.022;2023-12-04T09:47:07;10.75;;;9.65;;
2622;SDS011;1321;48.690;9.022;2023-12-04T09:49:37;10.57;;;9.40;;
2622;SDS011;1321;48.690;9.022;2023-12-04T09:52:06;10.50;;;9.40;;
2622;SDS011;1321;48.690;9.022;2023-12-04T09:54:35;14.27;;;12.32;;
2622;SDS011;1321;48.690;9.022;2023-12-04T09:57:05;12.02;;;9.40;;
2622;SDS011;1321;48.690;9.022;2023-12-04T09:59:33;9.60;;;8.70;;
2622;SDS011;1321;48.690;9.022;2023-12-04T10:02:04;10.55;;;9.65;;
2622;SDS011;1321;48.690;9.022;2023-12-04T10:04:33;9.40;;;8.45;;
2622;SDS011;1321;48.690;9.022;2023-12-04T10:07:02;9.85;;;8.88;;
2622;SDS011;1321;48.690;9.022;2023-12-04T10:09:31;9.63;;;8.77;;
2622;SDS011;1321;48.690;9.022;2023-12-04T10:11:59;9.50;;;8.60;;
2622;SDS011;1321;48.690;9.022;2023-12-04T10:14:28;11.75;;;9.10;;
2622;SDS011;1321;48.690;9.022;2023-12-04T10:16:57;9.02;;;8.23;;
2622;SDS011;1321;48.690;9.022;2023-12-04T10:19:27;9.82;;;8.82;;
2622;SDS011;1321;48.690;9.022;2023-12-04T10:21:57;10.20;;;9.20;;
2622;SDS011;1321;48.690;9.022;2023-12-04T10:24:27;9.60;;;8.70;;
2622;SDS011;1321;48.690;9.022;2023-12-04T10:26:57;9.95;;;8.95;;
2622;SDS011;1321;48.690;9.022;2023-12-04T10:29:29;9.75;;;8.82;;
2622;SDS011;1321;48.690;9.022;2023-12-04T10:32:09;9.25;;;8.30;;
2622;SDS011;1321;48.690;9.022;2023-12-04T10:34:39;9.10;;;8.25;;
2622;SDS011;1321;48.690;9.022;2023-12-04T10:37:09;8.40;;;7.78;;
2622;SDS011;1321;48.690;9.022;2023-12-04T10:39:45;9.35;;;8.65;;
2622;SDS011;1321;48.690;9.022;2023-12-04T10:42:22;8.20;;;7.50;;
2622;SDS011;1321;48.690;9.022;2023-12-04T10:44:52;8.35;;;7.65;;
2622;SDS011;1321;48.690;9.022;2023-12-04T10:47:23;7.97;;;7.40;;
2622;SDS011;1321;48.690;9.022;2023-12-04T10:49:53;7.95;;;7.40;;
2622;SDS011;1321;48.690;9.022;2023-12-04T10:52:23;8.13;;;7.40;;
2622;SDS011;1321;48.690;9.022;2023-12-04T10:54:51;9.63;;;8.63;;
2622;SDS011;1321;48.690;9.022;2023-12-04T10:57:21;9.48;;;8.57;;
2622;SDS011;1321;48.690;9.022;2023-12-04T10:59:55;11.00;;;9.90;;
2622;SDS011;1321;48.690;9.022;2023-12-04T11:02:25;9.02;;;8.32;;
2622;SDS011;1321;48.690;9.022;2023-12-04T11:04:58;9.65;;;8.85;;
2622;SDS011;1321;48.690;9.022;2023-12-04T11:07:34;9.20;;;8.32;;
2622;SDS011;1321;48.690;9.022;2023-12-04T11:10:25;12.07;;;8.98;;
2622;SDS011;1321;48.690;9.022;2023-12-04T11:12:57;9.50;;;8.65;;
2622;SDS011;1321;48.690;9.022;2023-12-04T11:15:38;9.95;;;9.15;;
2622;SDS011;1321;48.690;9.022;2023-12-04T11:18:10;9.27;;;8.43;;
2622;SDS011;1321;48.690;9.022;2023-12-04T11:20:43;9.38;;;8.57;;
2622;SDS011;1321;48.690;9.022;2023-12-04T11:23:15;11.13;;;8.38;;
2622;SDS011;1321;48.690;9.022;2023-12-04T11:25:44;9.73;;;9.02;;
2622;SDS011;1321;48.690;9.022;2023-12-04T11:28:14;10.13;;;9.43;;
2622;SDS011;1321;48.690;9.022;2023-12-04T11:30:43;9.70;;;8.90;;
2622;SDS011;1321;48.690;9.022;2023-12-04T11:33:12;11.15;;;10.02;;
2622;SDS011;1321;48.690;9.022;2023-12-04T11:35:40;10.70;;;9.77;;
2622;SDS011;1321;48.690;9.022;2023-12-04T11:38:12;9.95;;;8.95;;
2622;SDS011;1321;48.690;9.022;2023-12-04T11:40:42;10.55;;;9.57;;
2622;SDS011;1321;48.690;9.022;2023-12-04T11:43:21;10.02;;;9.15;;
2622;SDS011;1321;48.690;9.022;2023-12-04T11:45:50;9.93;;;9.02;;
2622;SDS011;1321;48.690;9.022;2023-12-04T11:48:22;10.50;;;9.70;;
2622;SDS011;1321;48.690;9.022;2023-12-04T11:50:52;10.00;;;9.30;;
2622;SDS011;1321;48.690;9.022;2023-12-04T11:53:24;10.60;;;9.70;;
2622;SDS011;1321;48.690;9.022;2023-12-04T11:55:52;10.32;;;9.43;;
2622;SDS011;1321;48.690;9.022;2023-12-04T11:58:24;10.13;;;9.32;;
2622;SDS011;1321;48.690;9.022;2023-12-04T12:00:53;9.77;;;9.13;;
2622;SDS011;1321;48.690;9.022;2023-12-04T12:03:22;9.85;;;9.15;;
2622;SDS011;1321;48.690;9.022;2023-12-04T12:05:52;10.73;;;9.82;;
2622;SDS011;1321;48.690;9.022;2023-12-04T12:08:22;10.63;;;9.70;;
2622;SDS011;1321;48.690;9.022;2023-12-04T12:10:51;10.88;;;9.90;;
2622;SDS011;1321;48.690;9.022;2023-12-04T12:13:21;9.35;;;8.45;;
2622;SDS011;1321;48.690;9.022;2023-12-04T12:15:52;10.30;;;9.55;;
2622;SDS011;1321;48.690;9.022;2023-12-04T12:18:21;10.55;;;9.63;;
2622;SDS011;1321;48.690;9.022;2023-12-04T12:20:55;10.80;;;10.00;;
2622;SDS011;1321;48.690;9.022;2023-12-04T12:23:24;10.48;;;9.57;;
2622;SDS011;1321;48.690;9.022;2023-12-04T12:25:54;11.00;;;10.20;;
2622;SDS011;1321;48.690;9.022;2023-12-04T12:28:23;10.57;;;9.68;;
2622;SDS011;1321;48.690;9.022;2023-12-04T12:30:51;10.95;;;10.18;;
2622;SDS011;1321;48.690;9.022;2023-12-04T12:33:20;10.23;;;9.48;;
2622;SDS011;1321;48.690;9.022;2023-12-04T12:35:49;11.98;;;10.90;;
2622;SDS011;1321;48.690;9.022;2023-12-04T12:38:29;12.82;;;11.65;;
2622;SDS011;1321;48.690;9.022;2023-12-04T12:41:01;11.80;;;10.90;;
2622;SDS011;1321;48.690;9.022;2023-12-04T12:43:33;11.98;;;11.07;;
2622;SDS011;1321;48.690;9.022;2023-12-04T12:46:02;11.98;;;10.95;;
2622;SDS011;1321;48.690;9.022;2023-12-04T12:48:32;12.52;;;11.55;;
2622;SDS011;1321;48.690;9.022;2023-12-04T12:51:02;12.38;;;11.48;;
2622;SDS011;1321;48.690;9.022;2023-12-04T12:53:33;13.70;;;12.50;;
2622;SDS011;1321;48.690;9.022;2023-12-04T12:56:01;12.23;;;11.23;;
2622;SDS011;1321;48.690;9.022;2023-12-04T12:58:31;12.40;;;11.60;;
2622;SDS011;1321;48.690;9.022;2023-12-04T13:00:59;13.98;;;12.82;;
2622;SDS011;1321;48.690;9.022;2023-12-04T13:03:28;13.88;;;12.80;;
2622;SDS011;1321;48.690;9.022;2023-12-04T13:05:59;14.02;;;12.73;;
2622;SDS011;1321;48.690;9.022;2023-12-04T13:08:27;16.25;;;14.93;;
2622;SDS011;1321;48.690;9.022;2023-12-04T13:10:57;15.20;;;13.90;;
2622;SDS011;1321;48.690;9.022;2023-12-04T13:13:26;14.23;;;13.13;;
2622;SDS011;1321;48.690;9.022;2023-12-04T13:15:55;14.77;;;13.57;;
2622;SDS011;1321;48.690;9.022;2023-12-04T13:18:23;14.07;;;12.82;;
2622;SDS011;1321;48.690;9.022;2023-12-04T13:20:52;14.45;;;13.32;;
2622;SDS011;1321;48.690;9.022;2023-12-04T13:23:20;14.25;;;13.25;;
2622;SDS011;1321;48.690;9.022;2023-12-04T13:25:50;14.55;;;13.45;;
2622;SDS011;1321;48.690;9.022;2023-12-04T13:28:23;16.15;;;14.65;;
2622;SDS011;1321;48.690;9.022;2023-12-04T13:31:01;17.33;;;15.80;;
2622;SDS011;1321;48.690;9.022;2023-12-04T13:33:30;16.25;;;14.77;;
2622;SDS011;1321;48.690;9.022;2023-12-04T13:35:58;15.15;;;13.82;;
2622;SDS011;1321;48.690;9.022;2023-12-04T13:38:27;14.68;;;13.45;;
2622;SDS011;1321;48.690;9.022;2023-12-04T13:41:03;14.30;;;13.10;;
2622;SDS011;1321;48.690;9.022;2023-12-04T13:43:57;13.93;;;12.93;;
2622;SDS011;1321;48.690;9.022;2023-12-04T13:46:26;15.27;;;13.98;;
2622;SDS011;1321;48.690;9.022;2023-12-04T13:48:56;13.00;;;12.15;;
2622;SDS011;1321;48.690;9.022;2023-12-04T13:51:25;13.63;;;12.63;;
2622;SDS011;1321;48.690;9.022;2023-12-04T13:53:53;14.52;;;13.23;;
2622;SDS011;1321;48.690;9.022;2023-12-04T13:56:29;13.00;;;12.10;;
2622;SDS011;1321;48.690;9.022;2023-12-04T13:59:10;12.45;;;11.40;;
2622;SDS011;1321;48.690;9.022;2023-12-04T14:01:46;13.43;;;12.38;;
2622;SDS011;1321;48.690;9.022;2023-12-04T14:04:16;12.85;;;11.85;;
2622;SDS011;1321;48.690;9.022;2023-12-04T14:06:45;12.57;;;11.70;;
2622;SDS011;1321;48.690;9.022;2023-12-04T14:09:14;12.05;;;11.25;;
2622;SDS011;1321;48.690;9.022;2023-12-04T14:11:43;11.88;;;11.10;;
2622;SDS011;1321;48.690;9.022;2023-12-04T14:14:13;11.57;;;10.77;;
2622;SDS011;1321;48.690;9.022;2023-12-04T14:16:41;11.20;;;10.52;;
2622;SDS011;1321;48.690;9.022;2023-12-04T14:19:12;13.90;;;12.70;;
2622;SDS011;1321;48.690;9.022;2023-12-04T14:21:43;13.98;;;12.60;;
2622;SDS011;1321;48.690;9.022;2023-12-04T14:24:11;13.80;;;12.75;;
2622;SDS011;1321;48.690;9.022;2023-12-04T14:26:40;15.35;;;14.18;;
2622;SDS011;1321;48.690;9.022;2023-12-04T14:29:08;14.60;;;13.30;;
2622;SDS011;1321;48.690;9.022;2023-12-04T14:31:38;15.45;;;14.02;;
2622;SDS011;1321;48.690;9.022;2023-12-04T14:34:06;15.05;;;13.95;;
2622;SDS011;1321;48.690;9.022;2023-12-04T14:36:35;15.00;;;13.70;;
2622;SDS011;1321;48.690;9.022;2023-12-04T14:39:04;15.77;;;14.52;;
2622;SDS011;1321;48.690;9.022;2023-12-04T14:41:33;14.98;;;13.57;;
2622;SDS011;1321;48.690;9.022;2023-12-04T14:44:01;14.70;;;13.35;;
2622;SDS011;1321;48.690;9.022;2023-12-04T14:46:30;14.25;;;13.18;;
2622;SDS011;1321;48.690;9.022;2023-12-04T14:48:59;13.43;;;12.43;;
2622;SDS011;1321;48.690;9.022;2023-12-04T14:51:28;14.23;;;12.93;;
2622;SDS011;1321;48.690;9.022;2023-12-04T14:53:56;15.10;;;13.90;;
2622;SDS011;1321;48.690;9.022;2023-12-04T14:56:41;14.20;;;13.20;;
2622;SDS011;1321;48.690;9.022;2023-12-04T14:59:27;13.60;;;12.50;;
2622;SDS011;1321;48.690;9.022;2023-12-04T15:02:10;14.32;;;13.20;;
2622;SDS011;1321;48.690;9.022;2023-12-04T15:05:01;12.15;;;11.30;;
2622;SDS011;1321;48.690;9.022;2023-12-04T15:07:46;12.75;;;11.80;;
2622;SDS011;1321;48.690;9.022;2023-12-04T15:10:41;12.52;;;11.52;;
2622;SDS011;1321;48.690;9.022;2023-12-04T15:13:26;13.00;;;12.10;;
2622;SDS011;1321;48.690;9.022;2023-12-04T15:16:11;12.02;;;11.30;;
2622;SDS011;1321;48.690;9.022;2023-12-04T15:19:07;13.13;;;12.23;;
2622;SDS011;1321;48.690;9.022;2023-12-04T15:22:00;12.60;;;11.60;;